Hauptseite
METAR-TAF:

METAR-TAF

Flughäfen :

Yap, Yap Island, Mikronesien

Breite: 09-29N, Länge: 138-05E, Höhe: 28 m

Beobachtung

Neuester Wetterbericht von vor 13 Minuten, um 13:51 UTC
Wind 7 kt aus Ost/Nordost
Temperatur 28°C
Luftfeuchtigkeit 79%
Luftdruck 1013 hPa
Sichtweite: 19.3 km
Leicht bewölkt in der Höhe von 1600 ft
Durchbrochene Bewölkung in der Höhe von 30000 ft

METAR: PTYA 241351Z 07007KT 12SM FEW016 BKN300 28/24 A2991 RMK SLP129 T02760242

Zeit: 00:04 (14:04 UTC)

Prognose

Neuester Wetterbericht von vor 2 Stunden und 44 Minuten, um 11:20 UTC
Gültige Prognose vom 24 um 12 UTC bis 25 um 12 UTC
Wind 9 kt aus Ost/Nordost
Sichtweite: 10 km
Aufgelockert bewölkt in der Höhe von 1800 ft
Schauer in der Nähe

TAF: PTYA 241120Z 2412/2512 06009KT P6SM VCSH SCT018

Wetterbeobachtungen und Prognosen von mehr als 4000 Flughäfen (METAR und TAF Bericht).

Die verfügbaren Stationen werden durch gelbe und rote Markierungen auf der Karte dargestellt.

Führen Sie die Maus auf sie, um den Namen der Station zu sehen.

Darauf klicken, um die Beobachtung von Wetterbeobachtungen und Prognosen zu sehen.

Um die Karte zu ändern : klicken Sie auf den grünen Tasten mit einem schwarzen Kreuz Zum Vergrößern, auf den grünen Button mit einem Gedankenstrich zu verkleinern, oder auf die grünen Pfeile für benachbarte Karten.


METAR-TAF: